createdAt,value
2017-07-14T00:01:36.113Z,3.37
2017-07-14T00:04:02.396Z,3.90
2017-07-14T00:06:28.664Z,3.55
2017-07-14T00:08:54.952Z,3.95
2017-07-14T00:11:21.225Z,3.50
2017-07-14T00:13:47.479Z,3.65
2017-07-14T00:16:13.727Z,3.22
2017-07-14T00:18:40.003Z,3.58
2017-07-14T00:21:06.262Z,3.10
2017-07-14T00:23:32.547Z,4.35
2017-07-14T00:25:59.207Z,4.50
2017-07-14T00:28:25.477Z,4.68
2017-07-14T00:30:51.737Z,4.45
2017-07-14T00:33:18.021Z,3.80
2017-07-14T00:35:44.267Z,4.10
2017-07-14T00:38:10.588Z,3.78
2017-07-14T00:40:36.857Z,4.10
2017-07-14T00:43:03.170Z,4.10
2017-07-14T00:45:29.448Z,4.20
2017-07-14T00:47:55.689Z,3.65
2017-07-14T00:50:21.993Z,3.87
2017-07-14T00:52:48.262Z,4.10
2017-07-14T00:55:14.527Z,3.55
2017-07-14T00:57:40.788Z,3.95
2017-07-14T01:00:07.052Z,3.67
2017-07-14T01:02:33.292Z,3.40
2017-07-14T01:04:59.579Z,3.10
2017-07-14T01:07:25.823Z,4.00
2017-07-14T01:09:52.108Z,4.25
2017-07-14T01:12:18.352Z,3.55
2017-07-14T01:14:44.974Z,4.15
2017-07-14T01:17:11.253Z,3.97
2017-07-14T01:19:37.540Z,3.85
2017-07-14T01:22:03.776Z,4.45
2017-07-14T01:24:30.062Z,3.65
2017-07-14T01:26:56.329Z,3.53
2017-07-14T01:29:22.604Z,3.60
2017-07-14T01:31:48.912Z,3.92
2017-07-14T01:34:15.214Z,4.12
2017-07-14T01:36:41.834Z,4.03
2017-07-14T01:39:08.143Z,4.12
2017-07-14T01:41:34.434Z,3.90
2017-07-14T01:44:01.210Z,3.60
2017-07-14T01:46:27.489Z,3.83
2017-07-14T01:48:53.766Z,3.90
2017-07-14T01:51:20.074Z,4.47
2017-07-14T01:53:46.363Z,4.40
2017-07-14T01:56:12.671Z,4.05
2017-07-14T01:58:38.973Z,3.58
2017-07-14T02:01:05.273Z,3.90
2017-07-14T02:03:31.563Z,3.62
2017-07-14T02:05:57.897Z,3.50
2017-07-14T02:08:24.134Z,3.78
2017-07-14T02:10:50.428Z,4.28
2017-07-14T02:13:16.733Z,3.70
2017-07-14T02:15:43.054Z,3.97
2017-07-14T02:18:09.348Z,3.95
2017-07-14T02:20:35.654Z,3.97
2017-07-14T02:23:01.963Z,4.40
2017-07-14T02:25:28.297Z,4.30
2017-07-14T02:27:54.615Z,3.90
2017-07-14T02:30:20.941Z,3.90
2017-07-14T02:32:47.225Z,4.60
2017-07-14T02:35:13.522Z,4.47
2017-07-14T02:37:39.806Z,4.07
2017-07-14T02:40:06.479Z,4.82
2017-07-14T02:42:32.786Z,4.22
2017-07-14T02:44:59.093Z,3.85
2017-07-14T02:47:25.368Z,3.55
2017-07-14T02:49:51.698Z,4.70
2017-07-14T02:52:17.981Z,3.97
2017-07-14T02:54:44.290Z,3.75
2017-07-14T02:57:10.602Z,3.78
2017-07-14T02:59:36.908Z,3.75
2017-07-14T03:02:03.230Z,3.40
2017-07-14T03:04:29.506Z,3.83
2017-07-14T03:06:55.820Z,4.10
2017-07-14T03:09:22.109Z,2.78
2017-07-14T03:11:48.406Z,3.67
2017-07-14T03:14:14.678Z,3.75
2017-07-14T03:16:40.995Z,3.37
2017-07-14T03:19:07.286Z,3.58
2017-07-14T03:21:33.579Z,3.75
2017-07-14T03:23:59.863Z,4.10
2017-07-14T03:26:26.174Z,3.65
2017-07-14T03:28:52.464Z,4.07
2017-07-14T03:31:18.761Z,3.28
2017-07-14T03:33:45.079Z,3.72
2017-07-14T03:36:11.396Z,3.53
2017-07-14T03:38:37.667Z,4.10
2017-07-14T03:41:03.995Z,3.67
2017-07-14T03:43:30.335Z,3.58
2017-07-14T03:45:56.665Z,3.90
2017-07-14T03:48:22.947Z,3.90
2017-07-14T03:50:49.265Z,3.90
2017-07-14T03:53:15.566Z,4.50
2017-07-14T03:55:41.872Z,4.05
2017-07-14T03:58:08.177Z,4.75
2017-07-14T04:00:34.464Z,3.70
2017-07-14T04:03:00.739Z,3.60
2017-07-14T04:05:27.001Z,4.32
2017-07-14T04:07:53.296Z,4.40
2017-07-14T04:10:19.559Z,4.35
2017-07-14T04:12:45.841Z,3.78
2017-07-14T04:15:13.091Z,4.18
2017-07-14T04:17:39.358Z,4.47
2017-07-14T04:20:05.636Z,4.47
2017-07-14T04:22:31.918Z,4.22
2017-07-14T04:24:58.193Z,3.90
2017-07-14T04:27:24.460Z,4.53
2017-07-14T04:29:51.103Z,3.80
2017-07-14T04:32:17.401Z,3.97
2017-07-14T04:34:43.660Z,4.97
2017-07-14T04:37:09.901Z,4.47
2017-07-14T04:39:36.178Z,4.68
2017-07-14T04:42:02.475Z,4.00
2017-07-14T04:44:28.733Z,4.37
2017-07-14T04:46:55.010Z,4.68
2017-07-14T04:49:21.259Z,4.55
2017-07-14T04:51:47.543Z,5.12
2017-07-14T04:54:13.792Z,4.35
2017-07-14T04:56:40.451Z,4.72
2017-07-14T04:59:06.707Z,4.72
2017-07-14T05:01:32.996Z,4.78
2017-07-14T05:03:59.244Z,4.43
2017-07-14T05:06:25.516Z,4.87
2017-07-14T05:08:51.807Z,4.90
2017-07-14T05:11:18.060Z,4.72
2017-07-14T05:13:44.350Z,5.10
2017-07-14T05:16:10.619Z,6.18
2017-07-14T05:18:36.918Z,5.80
2017-07-14T05:21:03.184Z,5.70
2017-07-14T05:23:29.461Z,4.53
2017-07-14T05:25:55.743Z,4.37
2017-07-14T05:28:22.030Z,4.82
2017-07-14T05:30:48.300Z,5.10
2017-07-14T05:33:14.595Z,5.18
2017-07-14T05:35:40.974Z,5.80
2017-07-14T05:38:07.270Z,5.20
2017-07-14T05:40:33.526Z,6.00
2017-07-14T05:42:59.803Z,5.60
2017-07-14T05:45:26.124Z,6.07
2017-07-14T05:47:52.411Z,6.17
2017-07-14T05:50:18.672Z,5.90
2017-07-14T05:52:45.331Z,6.03
2017-07-14T05:55:11.580Z,6.87
2017-07-14T05:57:37.851Z,6.83
2017-07-14T06:00:04.111Z,6.57
2017-07-14T06:02:30.440Z,6.20
2017-07-14T06:04:57.077Z,6.60
2017-07-14T06:07:23.735Z,6.80
2017-07-14T06:09:49.996Z,7.10
2017-07-14T06:12:16.649Z,7.10
2017-07-14T06:14:42.938Z,7.45
2017-07-14T06:17:09.199Z,7.90
2017-07-14T06:19:35.480Z,7.30
2017-07-14T06:22:01.778Z,7.75
2017-07-14T06:24:28.075Z,7.55
2017-07-14T06:26:54.368Z,7.40
2017-07-14T06:29:20.653Z,6.82
2017-07-14T06:31:46.912Z,6.70
2017-07-14T06:34:13.218Z,7.70
2017-07-14T06:36:39.494Z,6.73
2017-07-14T06:39:05.787Z,6.83
2017-07-14T06:41:32.071Z,7.30
2017-07-14T06:43:58.371Z,9.20
2017-07-14T06:46:24.633Z,8.13
2017-07-14T06:48:50.941Z,6.30
2017-07-14T06:51:17.331Z,5.77
2017-07-14T06:53:43.642Z,6.13
2017-07-14T06:56:09.910Z,5.60
2017-07-14T06:58:36.574Z,4.57
2017-07-14T07:01:02.833Z,5.73
2017-07-14T07:03:29.168Z,5.40
2017-07-14T07:05:55.415Z,5.60
2017-07-14T07:08:21.704Z,5.17
2017-07-14T07:10:47.981Z,5.80
2017-07-14T07:13:14.273Z,6.00
2017-07-14T07:15:40.559Z,5.20
2017-07-14T07:18:07.198Z,6.10
2017-07-14T07:20:33.484Z,5.03
2017-07-14T07:22:59.732Z,5.00
2017-07-14T07:25:26.029Z,6.60
2017-07-14T07:27:52.306Z,6.50
2017-07-14T07:30:18.986Z,7.20
2017-07-14T07:32:45.216Z,7.40
2017-07-14T07:35:11.505Z,7.10
2017-07-14T07:37:37.791Z,6.50
